sensor_id;sensor_type;location;lat;lon;timestamp;temperature;humidity
16801;DHT22;8518;53.236;10.384;2023-01-10T00:00:39;7.10;99.90
16801;DHT22;8518;53.236;10.384;2023-01-10T00:03:06;7.10;99.90
16801;DHT22;8518;53.236;10.384;2023-01-10T00:05:33;7.10;99.90
16801;DHT22;8518;53.236;10.384;2023-01-10T00:07:59;7.00;99.90
16801;DHT22;8518;53.236;10.384;2023-01-10T00:10:27;7.10;99.90
16801;DHT22;8518;53.236;10.384;2023-01-10T00:12:52;7.10;99.90
16801;DHT22;8518;53.236;10.384;2023-01-10T00:15:47;7.10;99.90
16801;DHT22;8518;53.236;10.384;2023-01-10T00:18:13;7.10;99.90
16801;DHT22;8518;53.236;10.384;2023-01-10T00:20:39;7.10;99.90
16801;DHT22;8518;53.236;10.384;2023-01-10T00:23:05;7.10;99.90
16801;DHT22;8518;53.236;10.384;2023-01-10T00:25:31;7.10;99.90
16801;DHT22;8518;53.236;10.384;2023-01-10T00:27:58;7.20;99.90
16801;DHT22;8518;53.236;10.384;2023-01-10T00:30:37;7.20;99.90
16801;DHT22;8518;53.236;10.384;2023-01-10T00:33:02;7.20;99.90
16801;DHT22;8518;53.236;10.384;2023-01-10T00:35:29;7.20;99.90
16801;DHT22;8518;53.236;10.384;2023-01-10T00:37:55;7.10;99.90
16801;DHT22;8518;53.236;10.384;2023-01-10T00:40:26;7.10;99.90
16801;DHT22;8518;53.236;10.384;2023-01-10T00:42:51;7.10;99.90
16801;DHT22;8518;53.236;10.384;2023-01-10T00:45:36;7.20;99.90
16801;DHT22;8518;53.236;10.384;2023-01-10T00:48:01;7.10;99.90
16801;DHT22;8518;53.236;10.384;2023-01-10T00:50:27;7.00;99.90
16801;DHT22;8518;53.236;10.384;2023-01-10T00:52:52;7.00;99.90
16801;DHT22;8518;53.236;10.384;2023-01-10T00:55:18;7.10;99.90
16801;DHT22;8518;53.236;10.384;2023-01-10T00:57:44;6.90;99.90
16801;DHT22;8518;53.236;10.384;2023-01-10T01:00:09;6.90;99.90
16801;DHT22;8518;53.236;10.384;2023-01-10T01:02:36;6.90;99.90
16801;DHT22;8518;53.236;10.384;2023-01-10T01:05:03;6.90;99.90
16801;DHT22;8518;53.236;10.384;2023-01-10T01:07:29;6.90;99.90
16801;DHT22;8518;53.236;10.384;2023-01-10T01:09:54;6.80;99.90
16801;DHT22;8518;53.236;10.384;2023-01-10T01:12:38;6.70;99.90
16801;DHT22;8518;53.236;10.384;2023-01-10T01:15:05;6.80;99.90
16801;DHT22;8518;53.236;10.384;2023-01-10T01:17:30;6.70;99.90
16801;DHT22;8518;53.236;10.384;2023-01-10T01:19:56;6.70;99.90
16801;DHT22;8518;53.236;10.384;2023-01-10T01:22:22;6.80;99.90
16801;DHT22;8518;53.236;10.384;2023-01-10T01:24:47;6.80;99.90
16801;DHT22;8518;53.236;10.384;2023-01-10T01:27:13;6.80;99.90
16801;DHT22;8518;53.236;10.384;2023-01-10T01:29:38;6.70;99.90
16801;DHT22;8518;53.236;10.384;2023-01-10T01:32:04;6.70;99.90
16801;DHT22;8518;53.236;10.384;2023-01-10T01:34:30;6.70;99.90
16801;DHT22;8518;53.236;10.384;2023-01-10T01:36:55;6.60;99.90
16801;DHT22;8518;53.236;10.384;2023-01-10T01:39:22;6.60;99.90
16801;DHT22;8518;53.236;10.384;2023-01-10T01:41:48;6.60;99.90
16801;DHT22;8518;53.236;10.384;2023-01-10T01:44:29;6.60;99.90
16801;DHT22;8518;53.236;10.384;2023-01-10T01:47:06;6.50;99.90
16801;DHT22;8518;53.236;10.384;2023-01-10T01:49:38;6.40;99.90
16801;DHT22;8518;53.236;10.384;2023-01-10T01:52:11;6.30;99.90
16801;DHT22;8518;53.236;10.384;2023-01-10T01:54:39;6.20;99.90
16801;DHT22;8518;53.236;10.384;2023-01-10T01:57:25;6.10;99.90
16801;DHT22;8518;53.236;10.384;2023-01-10T01:59:53;6.10;99.90
16801;DHT22;8518;53.236;10.384;2023-01-10T02:02:23;5.90;99.90
16801;DHT22;8518;53.236;10.384;2023-01-10T02:04:53;5.90;99.90
16801;DHT22;8518;53.236;10.384;2023-01-10T02:07:26;5.90;99.90
16801;DHT22;8518;53.236;10.384;2023-01-10T02:10:18;6.00;99.90
16801;DHT22;8518;53.236;10.384;2023-01-10T02:12:43;6.00;99.90
16801;DHT22;8518;53.236;10.384;2023-01-10T02:15:10;6.00;99.90
16801;DHT22;8518;53.236;10.384;2023-01-10T02:17:36;6.00;99.90
16801;DHT22;8518;53.236;10.384;2023-01-10T02:20:09;6.10;99.90
16801;DHT22;8518;53.236;10.384;2023-01-10T02:26:04;6.00;99.90
16801;DHT22;8518;53.236;10.384;2023-01-10T02:34:12;5.90;99.90
16801;DHT22;8518;53.236;10.384;2023-01-10T02:40:25;5.90;99.90
16801;DHT22;8518;53.236;10.384;2023-01-10T02:42:38;5.90;99.90
16801;DHT22;8518;53.236;10.384;2023-01-10T02:45:16;5.90;99.90
16801;DHT22;8518;53.236;10.384;2023-01-10T02:47:42;6.00;99.90
16801;DHT22;8518;53.236;10.384;2023-01-10T02:50:33;6.00;99.90
16801;DHT22;8518;53.236;10.384;2023-01-10T02:53:05;6.00;99.90
16801;DHT22;8518;53.236;10.384;2023-01-10T02:55:53;6.00;99.90
16801;DHT22;8518;53.236;10.384;2023-01-10T03:09:29;6.20;99.90
16801;DHT22;8518;53.236;10.384;2023-01-10T03:12:20;6.20;99.90
16801;DHT22;8518;53.236;10.384;2023-01-10T03:14:48;6.20;99.90
16801;DHT22;8518;53.236;10.384;2023-01-10T03:17:16;6.20;99.90
16801;DHT22;8518;53.236;10.384;2023-01-10T03:19:50;6.20;99.90
16801;DHT22;8518;53.236;10.384;2023-01-10T03:22:17;6.20;99.90
16801;DHT22;8518;53.236;10.384;2023-01-10T03:24:48;6.20;99.90
16801;DHT22;8518;53.236;10.384;2023-01-10T03:27:29;6.20;99.90
16801;DHT22;8518;53.236;10.384;2023-01-10T03:30:24;6.20;99.90
16801;DHT22;8518;53.236;10.384;2023-01-10T03:32:51;6.20;99.90
16801;DHT22;8518;53.236;10.384;2023-01-10T03:35:19;6.30;99.90
16801;DHT22;8518;53.236;10.384;2023-01-10T03:38:22;6.20;99.90
16801;DHT22;8518;53.236;10.384;2023-01-10T03:41:02;6.20;99.90
16801;DHT22;8518;53.236;10.384;2023-01-10T03:43:39;6.20;99.90
16801;DHT22;8518;53.236;10.384;2023-01-10T03:46:32;6.20;99.90
16801;DHT22;8518;53.236;10.384;2023-01-10T03:49:05;6.20;99.90
16801;DHT22;8518;53.236;10.384;2023-01-10T03:51:32;6.10;99.90
16801;DHT22;8518;53.236;10.384;2023-01-10T03:54:00;6.10;99.90
16801;DHT22;8518;53.236;10.384;2023-01-10T03:56:26;6.00;99.90
16801;DHT22;8518;53.236;10.384;2023-01-10T03:58:52;6.00;99.90
16801;DHT22;8518;53.236;10.384;2023-01-10T04:01:18;5.90;99.90
16801;DHT22;8518;53.236;10.384;2023-01-10T04:03:46;5.90;99.90
16801;DHT22;8518;53.236;10.384;2023-01-10T04:06:12;5.90;99.90
16801;DHT22;8518;53.236;10.384;2023-01-10T04:08:38;5.90;99.90
16801;DHT22;8518;53.236;10.384;2023-01-10T04:11:03;5.90;99.90
16801;DHT22;8518;53.236;10.384;2023-01-10T04:13:29;5.80;99.90
16801;DHT22;8518;53.236;10.384;2023-01-10T04:15:59;5.70;99.90
16801;DHT22;8518;53.236;10.384;2023-01-10T04:18:25;5.70;99.90
16801;DHT22;8518;53.236;10.384;2023-01-10T04:20:50;5.70;99.90
16801;DHT22;8518;53.236;10.384;2023-01-10T04:23:16;5.60;99.90
16801;DHT22;8518;53.236;10.384;2023-01-10T04:25:47;5.60;99.90
16801;DHT22;8518;53.236;10.384;2023-01-10T04:28:16;5.60;99.90
16801;DHT22;8518;53.236;10.384;2023-01-10T04:30:42;5.60;99.90
16801;DHT22;8518;53.236;10.384;2023-01-10T04:33:07;5.60;99.90
16801;DHT22;8518;53.236;10.384;2023-01-10T04:35:36;5.70;99.90
16801;DHT22;8518;53.236;10.384;2023-01-10T04:38:06;5.60;99.90
16801;DHT22;8518;53.236;10.384;2023-01-10T04:40:31;5.60;99.90
16801;DHT22;8518;53.236;10.384;2023-01-10T04:42:57;5.60;99.90
16801;DHT22;8518;53.236;10.384;2023-01-10T04:45:22;5.70;99.90
16801;DHT22;8518;53.236;10.384;2023-01-10T04:47:50;5.70;99.90
16801;DHT22;8518;53.236;10.384;2023-01-10T04:50:16;5.60;99.90
16801;DHT22;8518;53.236;10.384;2023-01-10T04:52:42;5.70;99.90
16801;DHT22;8518;53.236;10.384;2023-01-10T04:55:08;5.70;99.90
16801;DHT22;8518;53.236;10.384;2023-01-10T04:57:34;5.80;99.90
16801;DHT22;8518;53.236;10.384;2023-01-10T05:00:00;5.80;99.90
16801;DHT22;8518;53.236;10.384;2023-01-10T05:02:25;5.80;99.90
16801;DHT22;8518;53.236;10.384;2023-01-10T05:04:51;5.80;99.90
16801;DHT22;8518;53.236;10.384;2023-01-10T05:07:16;5.90;99.90
16801;DHT22;8518;53.236;10.384;2023-01-10T05:09:42;5.90;99.90
16801;DHT22;8518;53.236;10.384;2023-01-10T05:12:08;5.90;99.90
16801;DHT22;8518;53.236;10.384;2023-01-10T05:14:33;5.90;99.90
16801;DHT22;8518;53.236;10.384;2023-01-10T05:16:59;5.90;99.90
16801;DHT22;8518;53.236;10.384;2023-01-10T05:19:25;5.90;99.90
16801;DHT22;8518;53.236;10.384;2023-01-10T05:21:50;5.90;99.90
16801;DHT22;8518;53.236;10.384;2023-01-10T05:24:17;5.90;99.90
16801;DHT22;8518;53.236;10.384;2023-01-10T05:26:42;5.90;99.90
16801;DHT22;8518;53.236;10.384;2023-01-10T05:29:11;5.90;99.90
16801;DHT22;8518;53.236;10.384;2023-01-10T05:31:39;5.90;99.90
16801;DHT22;8518;53.236;10.384;2023-01-10T05:34:04;5.90;99.90
16801;DHT22;8518;53.236;10.384;2023-01-10T05:36:32;5.90;99.90
16801;DHT22;8518;53.236;10.384;2023-01-10T05:38:58;5.90;99.90
16801;DHT22;8518;53.236;10.384;2023-01-10T05:41:24;6.00;99.90
16801;DHT22;8518;53.236;10.384;2023-01-10T05:43:49;6.00;99.90
16801;DHT22;8518;53.236;10.384;2023-01-10T05:46:15;6.00;99.90
16801;DHT22;8518;53.236;10.384;2023-01-10T05:48:41;6.00;99.90
16801;DHT22;8518;53.236;10.384;2023-01-10T05:51:07;6.00;99.90
16801;DHT22;8518;53.236;10.384;2023-01-10T05:53:33;6.00;99.90
16801;DHT22;8518;53.236;10.384;2023-01-10T05:56:00;6.10;99.90
16801;DHT22;8518;53.236;10.384;2023-01-10T05:58:26;6.10;99.90
16801;DHT22;8518;53.236;10.384;2023-01-10T06:00:54;6.10;99.90
16801;DHT22;8518;53.236;10.384;2023-01-10T06:03:20;6.10;99.90
16801;DHT22;8518;53.236;10.384;2023-01-10T06:05:46;6.10;99.90
16801;DHT22;8518;53.236;10.384;2023-01-10T06:08:12;6.00;99.90
16801;DHT22;8518;53.236;10.384;2023-01-10T06:10:37;6.00;99.90
16801;DHT22;8518;53.236;10.384;2023-01-10T06:13:03;6.00;99.90
16801;DHT22;8518;53.236;10.384;2023-01-10T06:15:34;6.00;99.90
16801;DHT22;8518;53.236;10.384;2023-01-10T06:18:00;5.90;99.90
16801;DHT22;8518;53.236;10.384;2023-01-10T06:20:26;5.80;99.90
16801;DHT22;8518;53.236;10.384;2023-01-10T06:22:52;5.80;99.90
16801;DHT22;8518;53.236;10.384;2023-01-10T06:25:17;5.70;99.90
16801;DHT22;8518;53.236;10.384;2023-01-10T06:27:43;5.70;99.90
16801;DHT22;8518;53.236;10.384;2023-01-10T06:30:11;5.60;99.90
16801;DHT22;8518;53.236;10.384;2023-01-10T06:32:37;5.50;99.90
16801;DHT22;8518;53.236;10.384;2023-01-10T06:35:03;5.50;99.90
16801;DHT22;8518;53.236;10.384;2023-01-10T06:37:30;5.40;99.90
16801;DHT22;8518;53.236;10.384;2023-01-10T06:39:55;5.40;99.90
16801;DHT22;8518;53.236;10.384;2023-01-10T06:42:21;5.30;99.90
16801;DHT22;8518;53.236;10.384;2023-01-10T06:44:47;5.40;99.90
16801;DHT22;8518;53.236;10.384;2023-01-10T06:47:12;5.30;99.90
16801;DHT22;8518;53.236;10.384;2023-01-10T06:49:38;5.30;99.90
16801;DHT22;8518;53.236;10.384;2023-01-10T06:52:04;5.20;99.90
16801;DHT22;8518;53.236;10.384;2023-01-10T06:54:29;5.20;99.90
16801;DHT22;8518;53.236;10.384;2023-01-10T06:56:55;5.10;99.90
16801;DHT22;8518;53.236;10.384;2023-01-10T06:59:21;5.10;99.90
16801;DHT22;8518;53.236;10.384;2023-01-10T07:01:46;5.00;99.90
16801;DHT22;8518;53.236;10.384;2023-01-10T07:04:12;5.00;99.90
16801;DHT22;8518;53.236;10.384;2023-01-10T07:06:38;5.00;99.90
16801;DHT22;8518;53.236;10.384;2023-01-10T07:09:05;5.00;99.90
16801;DHT22;8518;53.236;10.384;2023-01-10T07:11:32;5.00;99.90
16801;DHT22;8518;53.236;10.384;2023-01-10T07:13:57;5.10;99.90
16801;DHT22;8518;53.236;10.384;2023-01-10T07:16:23;5.00;99.90
16801;DHT22;8518;53.236;10.384;2023-01-10T07:18:49;5.10;99.90
16801;DHT22;8518;53.236;10.384;2023-01-10T07:21:14;5.10;99.90
16801;DHT22;8518;53.236;10.384;2023-01-10T07:23:42;5.10;99.90
16801;DHT22;8518;53.236;10.384;2023-01-10T07:26:10;5.10;99.90
16801;DHT22;8518;53.236;10.384;2023-01-10T07:28:36;5.10;99.90
16801;DHT22;8518;53.236;10.384;2023-01-10T07:31:03;5.00;99.90
16801;DHT22;8518;53.236;10.384;2023-01-10T07:33:30;5.00;99.90
16801;DHT22;8518;53.236;10.384;2023-01-10T07:35:56;5.10;99.90
16801;DHT22;8518;53.236;10.384;2023-01-10T07:38:22;5.10;99.90
16801;DHT22;8518;53.236;10.384;2023-01-10T07:40:48;5.00;99.90
16801;DHT22;8518;53.236;10.384;2023-01-10T07:43:14;5.10;99.90
16801;DHT22;8518;53.236;10.384;2023-01-10T07:45:39;5.10;99.90
16801;DHT22;8518;53.236;10.384;2023-01-10T07:48:05;5.10;99.90
16801;DHT22;8518;53.236;10.384;2023-01-10T07:50:33;5.10;99.90
16801;DHT22;8518;53.236;10.384;2023-01-10T07:53:00;5.10;99.90
16801;DHT22;8518;53.236;10.384;2023-01-10T07:55:27;5.20;99.90
16801;DHT22;8518;53.236;10.384;2023-01-10T07:57:53;5.30;99.90
16801;DHT22;8518;53.236;10.384;2023-01-10T08:00:19;5.30;99.90
16801;DHT22;8518;53.236;10.384;2023-01-10T08:02:46;5.40;99.90
16801;DHT22;8518;53.236;10.384;2023-01-10T08:05:12;5.50;99.90
16801;DHT22;8518;53.236;10.384;2023-01-10T08:07:39;5.60;99.90
16801;DHT22;8518;53.236;10.384;2023-01-10T08:10:05;5.60;99.90
16801;DHT22;8518;53.236;10.384;2023-01-10T08:12:31;5.60;99.90
16801;DHT22;8518;53.236;10.384;2023-01-10T08:14:57;5.60;99.90
16801;DHT22;8518;53.236;10.384;2023-01-10T08:17:23;5.60;99.90
16801;DHT22;8518;53.236;10.384;2023-01-10T08:19:49;5.70;99.90
16801;DHT22;8518;53.236;10.384;2023-01-10T08:22:15;5.70;99.90
16801;DHT22;8518;53.236;10.384;2023-01-10T08:24:41;5.70;99.90
16801;DHT22;8518;53.236;10.384;2023-01-10T08:27:06;5.80;99.90
16801;DHT22;8518;53.236;10.384;2023-01-10T08:29:32;5.70;99.90
16801;DHT22;8518;53.236;10.384;2023-01-10T08:31:58;5.80;99.90
16801;DHT22;8518;53.236;10.384;2023-01-10T08:34:23;5.80;99.90
16801;DHT22;8518;53.236;10.384;2023-01-10T08:36:53;5.90;99.90
16801;DHT22;8518;53.236;10.384;2023-01-10T08:39:20;5.90;99.90
16801;DHT22;8518;53.236;10.384;2023-01-10T08:41:51;6.10;99.90
16801;DHT22;8518;53.236;10.384;2023-01-10T08:44:17;6.20;99.90
16801;DHT22;8518;53.236;10.384;2023-01-10T08:46:43;6.30;99.90
16801;DHT22;8518;53.236;10.384;2023-01-10T08:49:09;6.40;99.90
16801;DHT22;8518;53.236;10.384;2023-01-10T08:51:35;6.40;99.90
16801;DHT22;8518;53.236;10.384;2023-01-10T08:54:01;6.40;99.90
16801;DHT22;8518;53.236;10.384;2023-01-10T08:56:27;6.30;99.90
16801;DHT22;8518;53.236;10.384;2023-01-10T08:58:52;6.50;99.90
16801;DHT22;8518;53.236;10.384;2023-01-10T09:01:18;6.40;99.90
16801;DHT22;8518;53.236;10.384;2023-01-10T09:03:44;6.40;99.90
16801;DHT22;8518;53.236;10.384;2023-01-10T09:06:10;6.40;99.90
16801;DHT22;8518;53.236;10.384;2023-01-10T09:08:36;6.50;99.90
16801;DHT22;8518;53.236;10.384;2023-01-10T09:11:02;6.50;99.90
16801;DHT22;8518;53.236;10.384;2023-01-10T09:13:28;6.50;99.90
16801;DHT22;8518;53.236;10.384;2023-01-10T09:15:54;6.40;99.90
16801;DHT22;8518;53.236;10.384;2023-01-10T09:18:21;6.50;99.90
16801;DHT22;8518;53.236;10.384;2023-01-10T09:20:48;6.60;99.90
16801;DHT22;8518;53.236;10.384;2023-01-10T09:23:16;6.60;99.90
16801;DHT22;8518;53.236;10.384;2023-01-10T09:25:49;6.60;99.90
16801;DHT22;8518;53.236;10.384;2023-01-10T09:28:15;6.90;99.90
16801;DHT22;8518;53.236;10.384;2023-01-10T09:30:41;7.00;99.90
16801;DHT22;8518;53.236;10.384;2023-01-10T09:33:07;7.20;99.90
16801;DHT22;8518;53.236;10.384;2023-01-10T09:35:38;7.30;99.90
16801;DHT22;8518;53.236;10.384;2023-01-10T09:38:06;7.20;99.90
16801;DHT22;8518;53.236;10.384;2023-01-10T09:43:29;7.10;99.90
16801;DHT22;8518;53.236;10.384;2023-01-10T09:46:03;6.90;99.90
16801;DHT22;8518;53.236;10.384;2023-01-10T09:48:55;6.80;99.90
16801;DHT22;8518;53.236;10.384;2023-01-10T09:51:33;6.70;99.90
16801;DHT22;8518;53.236;10.384;2023-01-10T09:54:04;6.60;99.90
16801;DHT22;8518;53.236;10.384;2023-01-10T09:56:32;6.50;99.90
16801;DHT22;8518;53.236;10.384;2023-01-10T09:58:58;6.30;99.90
16801;DHT22;8518;53.236;10.384;2023-01-10T10:01:29;6.30;99.90
16801;DHT22;8518;53.236;10.384;2023-01-10T10:04:18;6.30;99.90
16801;DHT22;8518;53.236;10.384;2023-01-10T10:06:50;6.30;99.90
16801;DHT22;8518;53.236;10.384;2023-01-10T10:09:22;6.30;99.90
16801;DHT22;8518;53.236;10.384;2023-01-10T10:14:41;6.50;99.90
16801;DHT22;8518;53.236;10.384;2023-01-10T10:17:24;6.50;99.90
16801;DHT22;8518;53.236;10.384;2023-01-10T10:20:11;6.50;99.90
16801;DHT22;8518;53.236;10.384;2023-01-10T10:25:28;6.50;99.90
16801;DHT22;8518;53.236;10.384;2023-01-10T10:30:39;6.60;99.90
16801;DHT22;8518;53.236;10.384;2023-01-10T10:36:10;6.60;99.90
16801;DHT22;8518;53.236;10.384;2023-01-10T10:38:40;6.70;99.90
16801;DHT22;8518;53.236;10.384;2023-01-10T10:41:21;6.70;99.90
16801;DHT22;8518;53.236;10.384;2023-01-10T10:43:52;6.60;99.90
16801;DHT22;8518;53.236;10.384;2023-01-10T10:46:18;6.60;99.90
16801;DHT22;8518;53.236;10.384;2023-01-10T10:48:49;6.60;99.90
16801;DHT22;8518;53.236;10.384;2023-01-10T10:54:02;6.60;99.90
16801;DHT22;8518;53.236;10.384;2023-01-10T10:56:29;6.60;99.90
16801;DHT22;8518;53.236;10.384;2023-01-10T10:58:57;6.70;99.90
16801;DHT22;8518;53.236;10.384;2023-01-10T11:01:23;6.70;99.90
16801;DHT22;8518;53.236;10.384;2023-01-10T11:03:54;6.60;99.90
16801;DHT22;8518;53.236;10.384;2023-01-10T11:06:20;6.50;99.90
16801;DHT22;8518;53.236;10.384;2023-01-10T11:08:49;6.60;99.90
16801;DHT22;8518;53.236;10.384;2023-01-10T11:13:59;6.60;99.90
16801;DHT22;8518;53.236;10.384;2023-01-10T11:16:35;6.60;99.90
16801;DHT22;8518;53.236;10.384;2023-01-10T11:19:16;6.60;99.90
16801;DHT22;8518;53.236;10.384;2023-01-10T11:21:49;6.60;99.90
16801;DHT22;8518;53.236;10.384;2023-01-10T11:26:51;6.70;99.90
16801;DHT22;8518;53.236;10.384;2023-01-10T11:29:45;6.70;99.90
16801;DHT22;8518;53.236;10.384;2023-01-10T11:32:17;6.70;99.90
16801;DHT22;8518;53.236;10.384;2023-01-10T11:34:50;6.70;99.90
16801;DHT22;8518;53.236;10.384;2023-01-10T11:37:23;6.80;99.90
16801;DHT22;8518;53.236;10.384;2023-01-10T11:40:24;6.80;99.90
16801;DHT22;8518;53.236;10.384;2023-01-10T11:42:52;6.80;99.90
16801;DHT22;8518;53.236;10.384;2023-01-10T11:45:23;6.80;99.90
16801;DHT22;8518;53.236;10.384;2023-01-10T11:48:14;6.70;99.90
16801;DHT22;8518;53.236;10.384;2023-01-10T11:50:48;6.70;99.90
16801;DHT22;8518;53.236;10.384;2023-01-10T11:53:40;6.70;99.90
16801;DHT22;8518;53.236;10.384;2023-01-10T11:56:10;6.80;99.90
16801;DHT22;8518;53.236;10.384;2023-01-10T11:58:37;6.70;99.90
16801;DHT22;8518;53.236;10.384;2023-01-10T12:01:04;6.70;99.90
16801;DHT22;8518;53.236;10.384;2023-01-10T12:03:33;6.60;99.90
16801;DHT22;8518;53.236;10.384;2023-01-10T12:06:05;6.70;99.90
16801;DHT22;8518;53.236;10.384;2023-01-10T12:08:32;6.70;99.90
16801;DHT22;8518;53.236;10.384;2023-01-10T12:11:09;6.80;99.90
16801;DHT22;8518;53.236;10.384;2023-01-10T12:13:50;6.90;99.90
16801;DHT22;8518;53.236;10.384;2023-01-10T12:16:29;6.90;99.90
16801;DHT22;8518;53.236;10.384;2023-01-10T12:18:57;7.00;99.90
16801;DHT22;8518;53.236;10.384;2023-01-10T12:21:31;7.00;99.90
16801;DHT22;8518;53.236;10.384;2023-01-10T12:24:02;7.00;99.90
16801;DHT22;8518;53.236;10.384;2023-01-10T12:26:30;7.10;99.90
16801;DHT22;8518;53.236;10.384;2023-01-10T12:29:02;7.10;99.90
16801;DHT22;8518;53.236;10.384;2023-01-10T12:31:32;7.00;99.90
16801;DHT22;8518;53.236;10.384;2023-01-10T12:34:13;7.10;99.90
16801;DHT22;8518;53.236;10.384;2023-01-10T12:39:31;7.20;99.90
16801;DHT22;8518;53.236;10.384;2023-01-10T12:50:22;7.30;99.90
16801;DHT22;8518;53.236;10.384;2023-01-10T12:55:54;7.50;99.90
16801;DHT22;8518;53.236;10.384;2023-01-10T12:58:49;8.00;99.90
16801;DHT22;8518;53.236;10.384;2023-01-10T13:01:20;7.50;99.90
16801;DHT22;8518;53.236;10.384;2023-01-10T13:03:52;7.50;99.90
16801;DHT22;8518;53.236;10.384;2023-01-10T13:06:40;7.50;99.90
16801;DHT22;8518;53.236;10.384;2023-01-10T13:09:18;7.50;99.90
16801;DHT22;8518;53.236;10.384;2023-01-10T13:14:37;7.50;99.90
16801;DHT22;8518;53.236;10.384;2023-01-10T13:22:48;7.30;99.90
16801;DHT22;8518;53.236;10.384;2023-01-10T13:25:26;7.30;99.90
16801;DHT22;8518;53.236;10.384;2023-01-10T13:30:26;7.30;99.90
16801;DHT22;8518;53.236;10.384;2023-01-10T13:33:00;7.30;99.90
16801;DHT22;8518;53.236;10.384;2023-01-10T13:35:26;7.30;99.90
16801;DHT22;8518;53.236;10.384;2023-01-10T13:37:54;7.20;99.90
16801;DHT22;8518;53.236;10.384;2023-01-10T13:40:26;7.30;99.90
16801;DHT22;8518;53.236;10.384;2023-01-10T13:43:36;7.30;99.90
16801;DHT22;8518;53.236;10.384;2023-01-10T13:51:18;7.40;99.90
16801;DHT22;8518;53.236;10.384;2023-01-10T13:54:00;7.40;99.90
16801;DHT22;8518;53.236;10.384;2023-01-10T13:58:57;7.40;99.90
16801;DHT22;8518;53.236;10.384;2023-01-10T14:01:42;7.30;99.90
16801;DHT22;8518;53.236;10.384;2023-01-10T14:04:29;7.30;99.90
16801;DHT22;8518;53.236;10.384;2023-01-10T14:07:12;7.30;99.90
16801;DHT22;8518;53.236;10.384;2023-01-10T14:09:44;7.30;99.90
16801;DHT22;8518;53.236;10.384;2023-01-10T14:15:19;7.30;99.90
16801;DHT22;8518;53.236;10.384;2023-01-10T14:17:56;7.30;99.90
16801;DHT22;8518;53.236;10.384;2023-01-10T14:20:22;7.30;99.90
16801;DHT22;8518;53.236;10.384;2023-01-10T14:23:00;7.30;99.90
16801;DHT22;8518;53.236;10.384;2023-01-10T14:25:27;7.30;99.90
16801;DHT22;8518;53.236;10.384;2023-01-10T14:27:59;7.30;99.90
16801;DHT22;8518;53.236;10.384;2023-01-10T14:30:31;7.20;99.90
16801;DHT22;8518;53.236;10.384;2023-01-10T14:33:11;7.20;99.90
16801;DHT22;8518;53.236;10.384;2023-01-10T14:35:43;7.20;99.90
16801;DHT22;8518;53.236;10.384;2023-01-10T14:38:27;7.20;99.90
16801;DHT22;8518;53.236;10.384;2023-01-10T14:40:59;7.20;99.90
16801;DHT22;8518;53.236;10.384;2023-01-10T14:43:32;7.10;99.90
16801;DHT22;8518;53.236;10.384;2023-01-10T14:46:16;7.20;99.90
16801;DHT22;8518;53.236;10.384;2023-01-10T14:48:46;7.20;99.90
16801;DHT22;8518;53.236;10.384;2023-01-10T14:51:25;7.20;99.90
16801;DHT22;8518;53.236;10.384;2023-01-10T14:53:56;7.20;99.90
16801;DHT22;8518;53.236;10.384;2023-01-10T14:56:28;7.20;99.90
16801;DHT22;8518;53.236;10.384;2023-01-10T14:58:53;7.20;99.90
16801;DHT22;8518;53.236;10.384;2023-01-10T15:01:28;7.10;99.90
16801;DHT22;8518;53.236;10.384;2023-01-10T15:03:55;7.00;99.90
16801;DHT22;8518;53.236;10.384;2023-01-10T15:06:22;7.00;99.90
16801;DHT22;8518;53.236;10.384;2023-01-10T15:08:56;7.00;99.90
16801;DHT22;8518;53.236;10.384;2023-01-10T15:11:24;6.90;99.90
16801;DHT22;8518;53.236;10.384;2023-01-10T15:14:02;7.00;99.90
16801;DHT22;8518;53.236;10.384;2023-01-10T15:16:30;6.90;99.90
16801;DHT22;8518;53.236;10.384;2023-01-10T15:19:01;6.90;99.90
16801;DHT22;8518;53.236;10.384;2023-01-10T15:21:28;6.70;99.90
16801;DHT22;8518;53.236;10.384;2023-01-10T15:23:54;6.90;99.90
16801;DHT22;8518;53.236;10.384;2023-01-10T15:29:11;6.80;99.90
16801;DHT22;8518;53.236;10.384;2023-01-10T15:31:42;7.00;99.90
16801;DHT22;8518;53.236;10.384;2023-01-10T15:34:14;6.70;99.90
16801;DHT22;8518;53.236;10.384;2023-01-10T15:36:48;6.80;99.90
16801;DHT22;8518;53.236;10.384;2023-01-10T15:39:26;6.70;99.90
16801;DHT22;8518;53.236;10.384;2023-01-10T15:42:05;6.70;99.90
16801;DHT22;8518;53.236;10.384;2023-01-10T15:44:35;6.70;99.90
16801;DHT22;8518;53.236;10.384;2023-01-10T15:47:02;6.60;99.90
16801;DHT22;8518;53.236;10.384;2023-01-10T15:49:28;6.50;99.90
16801;DHT22;8518;53.236;10.384;2023-01-10T15:51:55;6.50;99.90
16801;DHT22;8518;53.236;10.384;2023-01-10T15:59:28;6.40;99.90
16801;DHT22;8518;53.236;10.384;2023-01-10T16:02:16;6.40;99.90
16801;DHT22;8518;53.236;10.384;2023-01-10T16:04:44;6.30;99.90
16801;DHT22;8518;53.236;10.384;2023-01-10T16:07:31;6.40;99.90
16801;DHT22;8518;53.236;10.384;2023-01-10T16:10:04;6.30;99.90
16801;DHT22;8518;53.236;10.384;2023-01-10T16:12:34;6.30;99.90
16801;DHT22;8518;53.236;10.384;2023-01-10T16:15:22;6.30;99.90
16801;DHT22;8518;53.236;10.384;2023-01-10T16:17:48;6.20;99.90
16801;DHT22;8518;53.236;10.384;2023-01-10T16:20:15;6.40;99.90
16801;DHT22;8518;53.236;10.384;2023-01-10T16:22:43;6.30;99.90
16801;DHT22;8518;53.236;10.384;2023-01-10T16:25:18;6.30;99.90
16801;DHT22;8518;53.236;10.384;2023-01-10T16:27:45;6.30;99.90
16801;DHT22;8518;53.236;10.384;2023-01-10T16:30:29;6.30;99.90
16801;DHT22;8518;53.236;10.384;2023-01-10T16:32:55;6.30;99.90
16801;DHT22;8518;53.236;10.384;2023-01-10T16:35:25;6.30;99.90
16801;DHT22;8518;53.236;10.384;2023-01-10T16:37:55;6.30;99.90
16801;DHT22;8518;53.236;10.384;2023-01-10T16:40:27;6.30;99.90
16801;DHT22;8518;53.236;10.384;2023-01-10T16:42:54;6.20;99.90
16801;DHT22;8518;53.236;10.384;2023-01-10T16:45:38;6.20;99.90
16801;DHT22;8518;53.236;10.384;2023-01-10T16:48:05;6.30;99.90
16801;DHT22;8518;53.236;10.384;2023-01-10T16:50:31;6.20;99.90
16801;DHT22;8518;53.236;10.384;2023-01-10T16:52:57;6.20;99.90
16801;DHT22;8518;53.236;10.384;2023-01-10T16:58:02;6.20;99.90
16801;DHT22;8518;53.236;10.384;2023-01-10T17:00:28;6.20;99.90
16801;DHT22;8518;53.236;10.384;2023-01-10T17:02:54;6.20;99.90
16801;DHT22;8518;53.236;10.384;2023-01-10T17:05:21;6.30;99.90
16801;DHT22;8518;53.236;10.384;2023-01-10T17:07:46;6.30;99.90
16801;DHT22;8518;53.236;10.384;2023-01-10T17:10:12;6.30;99.90
16801;DHT22;8518;53.236;10.384;2023-01-10T17:12:38;6.30;99.90
16801;DHT22;8518;53.236;10.384;2023-01-10T17:15:09;6.30;99.90
16801;DHT22;8518;53.236;10.384;2023-01-10T17:17:35;6.30;99.90
16801;DHT22;8518;53.236;10.384;2023-01-10T17:20:02;6.30;99.90
16801;DHT22;8518;53.236;10.384;2023-01-10T17:22:28;6.30;99.90
16801;DHT22;8518;53.236;10.384;2023-01-10T17:24:55;6.20;99.90
16801;DHT22;8518;53.236;10.384;2023-01-10T17:27:20;6.20;99.90
16801;DHT22;8518;53.236;10.384;2023-01-10T17:29:46;6.30;99.90
16801;DHT22;8518;53.236;10.384;2023-01-10T17:32:11;6.20;99.90
16801;DHT22;8518;53.236;10.384;2023-01-10T17:34:37;6.20;99.90